Time;durP1;ratioP1;P1;durP2;ratioP2;P2;SDS_P1;SDS_P2;PMS_P1;PMS_P2;Temp;Humidity;BMP_temperature;BMP_pressure;BME280_temperature;BME280_humidity;BME280_pressure;Samples;Min_cycle;Max_cycle;Signal;HPM_P1;HPM_P2
2022/05/15 00:01:14;;;;;;;;;11.50;11.50;;;;;;;;2;279080412;279080412;-77
2022/05/15 00:09:56;;;;;;;;;10.50;10.50;;;;;;;;2;234067037;234067037;-77
2022/05/15 00:18:57;;;;;;;;;9.50;9.50;;;;;;;;2;279081167;279081167;-77
2022/05/15 00:27:40;;;;;;;;;4.50;4.50;;;;;;;;2;234068401;234068401;-77
2022/05/15 00:36:40;;;;;;;;;4.00;4.00;;;;;;;;2;279080424;279080424;-77
2022/05/15 00:45:23;;;;;;;;;16.50;5.00;;;;;;;;2;234070565;234070565;-77
2022/05/15 00:54:29;;;;;;;;;5.50;5.50;;;;;;;;2;279080785;279080785;-77
2022/05/15 01:03:13;;;;;;;;;6.00;6.00;;;;;;;;2;234069176;234069176;-77
2022/05/15 01:12:13;;;;;;;;;9.50;9.50;;;;;;;;2;279082167;279082167;-77
2022/05/15 01:20:57;;;;;;;;;5.50;5.50;;;;;;;;2;234070628;234070628;-77
2022/05/15 01:29:57;;;;;;;;;5.50;5.50;;;;;;;;2;279080460;279080460;-77
2022/05/15 01:38:40;;;;;;;;;6.00;6.00;;;;;;;;2;234066969;234066969;-77
2022/05/15 01:47:41;;;;;;;;;4.50;4.50;;;;;;;;2;279080056;279080056;-77
2022/05/15 01:56:23;;;;;;;;;7.50;7.50;;;;;;;;2;234071048;234071048;-76
2022/05/15 02:08:43;;;;;;;;;7.50;7.50;;;;;;;;2;279081204;279081204;-76
2022/05/15 02:17:26;;;;;;;;;5.00;5.00;;;;;;;;2;234068391;234068391;-76
2022/05/15 02:26:26;;;;;;;;;4.00;4.00;;;;;;;;2;279081072;279081072;-77
2022/05/15 02:35:09;;;;;;;;;13.00;1.50;;;;;;;;2;234068415;234068415;-76
2022/05/15 02:44:10;;;;;;;;;2.50;2.50;;;;;;;;2;279082825;279082825;-76
2022/05/15 02:52:54;;;;;;;;;1.50;1.50;;;;;;;;2;234065728;234065728;-77
2022/05/15 03:01:54;;;;;;;;;10.50;5.50;;;;;;;;2;279081243;279081243;-77
2022/05/15 03:10:36;;;;;;;;;3.50;3.50;;;;;;;;2;234066528;234066528;-77
2022/05/15 03:19:37;;;;;;;;;2.50;2.50;;;;;;;;2;279081755;279081755;-77
2022/05/15 03:28:20;;;;;;;;;6.00;2.00;;;;;;;;2;234070931;234070931;-77
2022/05/15 03:37:20;;;;;;;;;5.50;4.00;;;;;;;;2;279081955;279081955;-77
2022/05/15 03:46:03;;;;;;;;;4.50;4.50;;;;;;;;2;234068787;234068787;-77
2022/05/15 03:55:04;;;;;;;;;3.00;3.00;;;;;;;;2;279083201;279083201;-77
2022/05/15 04:03:47;;;;;;;;;2.00;2.00;;;;;;;;2;234071185;234071185;-77
2022/05/15 04:12:47;;;;;;;;;4.00;4.00;;;;;;;;2;279081177;279081177;-77
2022/05/15 04:21:36;;;;;;;;;4.00;4.00;;;;;;;;2;234067200;234067200;-77
2022/05/15 04:30:37;;;;;;;;;5.00;5.00;;;;;;;;2;279079774;279079774;-77
2022/05/15 04:39:19;;;;;;;;;7.00;5.00;;;;;;;;2;234068600;234068600;-77
2022/05/15 04:48:20;;;;;;;;;3.50;3.50;;;;;;;;2;279080520;279080520;-76
2022/05/15 04:57:03;;;;;;;;;3.50;3.50;;;;;;;;2;234068803;234068803;-77
2022/05/15 05:06:03;;;;;;;;;5.50;5.50;;;;;;;;2;279080703;279080703;-77
2022/05/15 05:14:46;;;;;;;;;11.00;6.00;;;;;;;;2;234067808;234067808;-76
2022/05/15 05:23:46;;;;;;;;;8.00;4.00;;;;;;;;2;279083401;279083401;-76
2022/05/15 05:32:29;;;;;;;;;6.50;6.50;;;;;;;;2;234068226;234068226;-77
2022/05/15 05:41:29;;;;;;;;;2.00;2.00;;;;;;;;2;279081070;279081070;-76
2022/05/15 05:50:12;;;;;;;;;2.50;2.50;;;;;;;;2;234068352;234068352;-77
2022/05/15 05:59:13;;;;;;;;;5.00;5.00;;;;;;;;2;279082762;279082762;-77
2022/05/15 06:07:55;;;;;;;;;4.50;4.50;;;;;;;;2;234069674;234069674;-77
2022/05/15 06:16:56;;;;;;;;;6.50;6.50;;;;;;;;2;279080682;279080682;-77
2022/05/15 06:25:38;;;;;;;;;12.50;3.50;;;;;;;;2;234071646;234071646;-77
2022/05/15 06:34:39;;;;;;;;;3.00;3.00;;;;;;;;2;279081147;279081147;-77
2022/05/15 06:43:21;;;;;;;;;5.00;1.00;;;;;;;;2;234069218;234069218;-77
2022/05/15 06:52:22;;;;;;;;;1.50;1.50;;;;;;;;2;279082130;279082130;-77
2022/05/15 07:01:05;;;;;;;;;6.00;6.00;;;;;;;;2;234071494;234071494;-77
2022/05/15 07:10:06;;;;;;;;;3.50;3.50;;;;;;;;2;279082079;279082079;-77
2022/05/15 07:18:48;;;;;;;;;5.00;3.50;;;;;;;;2;234068816;234068816;-77
2022/05/15 07:27:49;;;;;;;;;4.50;2.50;;;;;;;;2;279085225;279085225;-77
2022/05/15 07:36:32;;;;;;;;;10.00;5.50;;;;;;;;2;234072204;234072204;-77
2022/05/15 07:45:33;;;;;;;;;4.50;4.50;;;;;;;;2;279080741;279080741;-77
2022/05/15 07:54:16;;;;;;;;;2.00;2.00;;;;;;;;2;234070393;234070393;-77
2022/05/15 08:03:17;;;;;;;;;5.00;5.00;;;;;;;;2;279079776;279079776;-79
2022/05/15 08:11:59;;;;;;;;;2.50;2.50;;;;;;;;2;234070719;234070719;-80
2022/05/15 08:30:02;;;;;;;;;3.00;3.00;;;;;;;;2;234072881;234072881;-78
2022/05/15 08:39:03;;;;;;;;;3.00;3.00;;;;;;;;2;279081990;279081990;-78
2022/05/15 08:47:47;;;;;;;;;3.00;3.00;;;;;;;;2;234072665;234072665;-77
2022/05/15 08:56:50;;;;;;;;;8.50;3.00;;;;;;;;2;279081631;279081631;-77
2022/05/15 09:05:33;;;;;;;;;3.50;3.50;;;;;;;;2;234070958;234070958;-79
2022/05/15 09:14:39;;;;;;;;;2.00;2.00;;;;;;;;2;279082303;279082303;-77
2022/05/15 09:23:24;;;;;;;;;2.00;2.00;;;;;;;;2;234067986;234067986;-77
2022/05/15 09:32:36;;;;;;;;;2.50;2.50;;;;;;;;2;279082396;279082396;-80
2022/05/15 09:50:42;;;;;;;;;3.00;3.00;;;;;;;;2;279084470;279084470;-79
2022/05/15 09:59:26;;;;;;;;;2.00;2.00;;;;;;;;2;234069955;234069955;-79
2022/05/15 10:08:27;;;;;;;;;2.00;2.00;;;;;;;;2;279081327;279081327;-77
2022/05/15 10:17:11;;;;;;;;;4.50;4.50;;;;;;;;2;234075364;234075364;-79
2022/05/15 10:26:35;;;;;;;;;1.00;1.00;;;;;;;;2;279081359;279081359;-80
2022/05/15 10:35:23;;;;;;;;;6.50;2.50;;;;;;;;2;234070986;234070986;-79
2022/05/15 10:44:30;;;;;;;;;8.00;2.50;;;;;;;;2;279081487;279081487;-79
2022/05/15 11:02:37;;;;;;;;;0.50;0.50;;;;;;;;2;279080350;279080350;-81
2022/05/15 11:11:22;;;;;;;;;3.50;3.50;;;;;;;;2;234069464;234069464;-81
2022/05/15 11:20:25;;;;;;;;;2.50;2.50;;;;;;;;2;279082146;279082146;-82
2022/05/15 11:29:11;;;;;;;;;5.00;5.00;;;;;;;;2;234070849;234070849;-82
2022/05/15 11:38:27;;;;;;;;;4.50;4.50;;;;;;;;2;279081573;279081573;-82
2022/05/15 11:47:24;;;;;;;;;2.00;2.00;;;;;;;;2;234069968;234069968;-80
2022/05/15 11:56:27;;;;;;;;;3.50;3.50;;;;;;;;2;279083640;279083640;-81
2022/05/15 12:05:36;;;;;;;;;2.00;2.00;;;;;;;;2;234072223;234072223;-82
2022/05/15 12:14:38;;;;;;;;;0.50;0.50;;;;;;;;2;279084756;279084756;-82
2022/05/15 12:23:22;;;;;;;;;4.00;4.00;;;;;;;;2;234071296;234071296;-81
2022/05/15 12:32:29;;;;;;;;;1.00;1.00;;;;;;;;2;279084029;279084029;-80
2022/05/15 12:41:19;;;;;;;;;0.00;0.00;;;;;;;;2;234068530;234068530;-81
2022/05/15 12:50:21;;;;;;;;;3.50;3.50;;;;;;;;2;279083561;279083561;-82
2022/05/15 12:59:11;;;;;;;;;1.00;1.00;;;;;;;;2;234069741;234069741;-76
2022/05/15 13:08:12;;;;;;;;;3.50;3.50;;;;;;;;2;279082698;279082698;-81
2022/05/15 13:16:55;;;;;;;;;2.50;2.50;;;;;;;;2;234069835;234069835;-79
2022/05/15 13:25:56;;;;;;;;;3.50;3.50;;;;;;;;2;279081699;279081699;-80
2022/05/15 13:34:39;;;;;;;;;0.50;0.50;;;;;;;;2;234069259;234069259;-83
2022/05/15 13:43:48;;;;;;;;;2.50;2.50;;;;;;;;2;279084589;279084589;-80
2022/05/15 13:52:34;;;;;;;;;1.50;1.50;;;;;;;;2;234069137;234069137;-81
2022/05/15 14:01:35;;;;;;;;;1.00;1.00;;;;;;;;2;279080794;279080794;-81
2022/05/15 14:10:22;;;;;;;;;0.50;0.50;;;;;;;;2;234070914;234070914;-81
2022/05/15 14:19:23;;;;;;;;;1.50;1.50;;;;;;;;2;279081534;279081534;-81
2022/05/15 14:28:05;;;;;;;;;7.50;3.00;;;;;;;;2;234068111;234068111;-80
2022/05/15 14:37:06;;;;;;;;;3.00;3.00;;;;;;;;2;279080227;279080227;-79
2022/05/15 14:45:55;;;;;;;;;3.00;3.00;;;;;;;;2;234069702;234069702;-80
2022/05/15 14:54:56;;;;;;;;;0.50;0.50;;;;;;;;2;279082309;279082309;-80
2022/05/15 15:03:39;;;;;;;;;2.00;2.00;;;;;;;;2;234070102;234070102;-77
2022/05/15 15:12:39;;;;;;;;;2.50;2.50;;;;;;;;2;279081301;279081301;-78
2022/05/15 15:21:26;;;;;;;;;2.50;2.50;;;;;;;;2;234066511;234066511;-78
2022/05/15 15:30:27;;;;;;;;;1.00;1.00;;;;;;;;2;279082597;279082597;-78
2022/05/15 15:39:11;;;;;;;;;2.50;2.50;;;;;;;;2;234071718;234071718;-78
2022/05/15 15:48:11;;;;;;;;;18.50;5.00;;;;;;;;2;279080925;279080925;-78
2022/05/15 15:56:56;;;;;;;;;3.50;3.50;;;;;;;;2;234070075;234070075;-79
2022/05/15 16:05:57;;;;;;;;;4.00;1.50;;;;;;;;2;279083853;279083853;-79
2022/05/15 16:14:39;;;;;;;;;3.50;3.50;;;;;;;;2;234068130;234068130;-78
2022/05/15 16:23:41;;;;;;;;;2.50;2.50;;;;;;;;2;279082833;279082833;-78
2022/05/15 16:32:29;;;;;;;;;4.50;4.50;;;;;;;;2;234067620;234067620;-77
2022/05/15 16:41:30;;;;;;;;;3.50;3.50;;;;;;;;2;279082432;279082432;-77
2022/05/15 16:50:16;;;;;;;;;5.00;2.00;;;;;;;;2;234067455;234067455;-77
2022/05/15 16:59:16;;;;;;;;;2.00;2.00;;;;;;;;2;279079453;279079453;-77
2022/05/15 17:07:59;;;;;;;;;2.00;2.00;;;;;;;;2;234069680;234069680;-77
2022/05/15 17:16:59;;;;;;;;;3.50;3.50;;;;;;;;2;279080565;279080565;-79
2022/05/15 17:25:42;;;;;;;;;10.00;10.00;;;;;;;;2;234068168;234068168;-78
2022/05/15 17:34:42;;;;;;;;;2.00;2.00;;;;;;;;2;279080837;279080837;-79
2022/05/15 17:43:25;;;;;;;;;16.00;4.00;;;;;;;;2;234070394;234070394;-81
2022/05/15 17:52:26;;;;;;;;;2.50;2.50;;;;;;;;2;279083697;279083697;-81
2022/05/15 18:01:09;;;;;;;;;3.50;3.50;;;;;;;;2;234071120;234071120;-80
2022/05/15 18:10:10;;;;;;;;;1.50;1.50;;;;;;;;2;279081574;279081574;-79
2022/05/15 18:18:53;;;;;;;;;6.00;4.00;;;;;;;;2;234070299;234070299;-80
2022/05/15 18:27:53;;;;;;;;;3.00;3.00;;;;;;;;2;279081827;279081827;-75
2022/05/15 18:36:37;;;;;;;;;6.00;6.00;;;;;;;;2;234067217;234067217;-79
2022/05/15 18:45:37;;;;;;;;;7.50;7.50;;;;;;;;2;279081652;279081652;-82
2022/05/15 19:03:40;;;;;;;;;6.50;6.50;;;;;;;;2;279081267;279081267;-80
2022/05/15 19:12:23;;;;;;;;;5.50;5.50;;;;;;;;2;234069448;234069448;-83
2022/05/15 19:21:23;;;;;;;;;10.00;10.00;;;;;;;;2;279082346;279082346;-86
2022/05/15 19:30:07;;;;;;;;;29.50;25.50;;;;;;;;2;234070033;234070033;-78
2022/05/15 19:39:09;;;;;;;;;22.50;20.00;;;;;;;;2;279085148;279085148;-76
2022/05/15 19:47:51;;;;;;;;;21.50;20.00;;;;;;;;2;234071169;234071169;-81
2022/05/15 19:56:56;;;;;;;;;21.00;19.50;;;;;;;;2;279082517;279082517;-79
2022/05/15 20:14:15;;;;;;;;;11.00;11.00;;;;;;;;3;92319217;171284465;-81
2022/05/15 20:20:13;;;;;;;;;18.50;18.00;;;;;;;;2;244709796;244709796;-81
2022/05/15 20:22:42;;;;;;;;;33.00;31.50;;;;;;;;3898991;27;25198394;-81
2022/05/15 20:26:09;;;;;;;;;;;;;;;;;;1413971;28;131706406;-83
2022/05/15 20:36:32;;;;;;;;;3.00;3.00;;;;;;;;348254;27;285488783;-84
2022/05/15 20:44:48;;;;;;;;;15.50;15.50;;;;;;;;2;261077409;261077409;-84
2022/05/15 20:54:17;;;;;;;;;17.00;17.00;;;;;;;;2;288087930;288087930;-83
2022/05/15 21:02:32;;;;;;;;;20.00;19.00;;;;;;;;2;261076593;261076593;-79
2022/05/15 21:12:00;;;;;;;;;12.00;12.00;;;;;;;;2;288081935;288081935;-79
2022/05/15 21:20:15;;;;;;;;;17.50;17.50;;;;;;;;2;261078034;261078034;-79
2022/05/15 21:29:43;;;;;;;;;12.50;12.50;;;;;;;;2;288080261;288080261;-79
2022/05/15 21:43:29;;;;;;;;;14.50;14.50;;;;;;;;2;261078006;261078006;-80
2022/05/15 21:47:46;;;;;;;;;11.50;11.50;;;;;;;;2;288083524;288083524;-84
2022/05/15 21:56:01;;;;;;;;;17.50;17.00;;;;;;;;2;261076807;261076807;-83
2022/05/15 22:05:29;;;;;;;;;9.50;9.50;;;;;;;;2;288084515;288084515;-83
2022/05/15 22:13:45;;;;;;;;;10.00;10.00;;;;;;;;2;261075008;261075008;-82
2022/05/15 22:23:12;;;;;;;;;13.00;13.00;;;;;;;;2;288082204;288082204;-83
2022/05/15 22:31:31;;;;;;;;;11.50;11.50;;;;;;;;2;261074133;261074133;-84
2022/05/15 22:41:08;;;;;;;;;15.00;15.00;;;;;;;;2;288082220;288082220;-85
2022/05/15 22:49:23;;;;;;;;;4.00;4.00;;;;;;;;2;261075508;261075508;-84
2022/05/15 22:58:51;;;;;;;;;7.00;7.00;;;;;;;;2;288086670;288086670;-84
2022/05/15 23:16:52;;;;;;;;;4.50;4.50;;;;;;;;2;288083909;288083909;-84
2022/05/15 23:25:08;;;;;;;;;7.50;7.50;;;;;;;;2;261075355;261075355;-86
2022/05/15 23:34:37;;;;;;;;;4.50;4.50;;;;;;;;2;288081488;288081488;-86
2022/05/15 23:42:53;;;;;;;;;8.00;8.00;;;;;;;;2;261075007;261075007;-86
2022/05/15 23:52:21;;;;;;;;;5.00;5.00;;;;;;;;2;288084794;288084794;-86
